• Join FlightAware (Why Join?)
  • Login
  • US Flag 
02:37AM EDT


 

Airport Tracker/Info


-or-


 

Live Flight TrackerFlight Track Log ✈ RPA3262 ✈ 17-Aug-2014 ✈ KDCA - KPWM

Flight Track Log - Related Links

Times and Time Zones

All times are in EDT time to prevent confusion due to time zone crossing. See the RPA3262 flight status page for this flight to view local times or setup timezone preferences in your user account.

Time Position Orientation Groundspeed Altitude Reporting Facility
EDT Latitude Longitude Course Direction KTS MPH feet Rate Location/Type
03:17PM 38.8242 -77.0358 57° Northeast 157 181 29,000  Level Washington Center
03:18PM 38.7667 -77.0333 178° South 222 255 2,700 -12,240 Descending Potomac TRACON
03:19PM 38.7333 -76.9667 123° Southeast 293 337 4,800 2,400 Climbing Potomac TRACON
03:21PM 39.0369 -76.5077 63° Northeast  Level FlightAware Approximate
03:22PM 39.0908 -76.3771 61° Northeast  Level FlightAware Approximate
03:22PM 38.8528 -76.9008 23° Northeast 264 304 10,500  Level Washington Center
03:23PM 39.1288 -76.2423 57° Northeast  Level FlightAware Approximate
03:23PM 38.9467 -76.8669 16° North 294 338 13,400  Level Washington Center
03:24PM 39.0278 -76.8369 16° North 305 351 15,200 1,980 Climbing Washington Center
03:25PM 39.1042 -76.7789 31° Northeast 334 384 17,700 1,740 Climbing Washington Center
03:26PM 39.1178 -76.6500 82° East 369 425 18,900 1,560 Climbing Washington Center
03:27PM 39.1303 -76.5078 83° East 396 456 20,900 1,980 Climbing Washington Center
03:28PM 39.1458 -76.3344 83° East 403 464 23,000 960 Climbing Washington Center
03:29PM 39.1569 -76.1844 84° East 419 482 23,000  Level Washington Center
03:30PM 39.1728 -76.0417 82° East 418 481 23,000  Level Washington Center
03:31PM 39.1908 -75.8989 81° East 410 472 23,000 900 Level Washington Center
03:32PM 39.2603 -75.7925 50° Northeast 397 457 24,900 1,920 Climbing Washington Center
03:33PM 39.3486 -75.6800 45° Northeast 377 434 27,100 1,920 Climbing Washington Center
03:34PM 39.4219 -75.5831 46° Northeast 377 434 28,900 900 Climbing Washington Center
03:35PM 39.4992 -75.4828 45° Northeast 392 451 29,000  Climbing Washington Center
03:36PM 39.5772 -75.3803 45° Northeast 399 459 29,000  Level Washington Center
03:37PM 39.6556 -75.2775 45° Northeast 399 459 29,000  Level Washington Center
03:38PM 39.7314 -75.1697 48° Northeast 401 461 29,000  Level Washington Center
03:39PM 39.8225 -75.0411 47° Northeast 403 464 29,000  Level Washington Center
03:40PM 39.9031 -74.9258 48° Northeast 401 461 29,000  Level Washington Center
03:41PM 39.9683 -74.8392 45° Northeast 408 470 29,000  Level New York Center
03:42PM 40.0494 -74.7217 48° Northeast 402 463 29,000  Level New York Center
03:43PM 40.1261 -74.6147 47° Northeast 397 457 29,000  Level New York Center
03:44PM 40.2025 -74.5078 47° Northeast 402 463 29,000  Level New York Center
03:45PM 40.2722 -74.4081 47° Northeast 407 468 29,000  Level New York Center
03:47PM 40.4392 -74.1717 47° Northeast 404 465 29,000  Level Boston Center
03:49PM 40.5308 -74.0447 46° Northeast 399 459 29,000  Level Boston Center
03:50PM 40.6083 -73.9317 48° Northeast 399 459 29,000  Level Boston Center
03:51PM 40.6833 -73.8231 48° Northeast 399 459 29,000  Level Boston Center
03:52PM 40.7583 -73.7128 48° Northeast 400 460 29,000  Level Boston Center
03:53PM 40.8333 -73.6056 47° Northeast 400 460 29,000  Level Boston Center
03:54PM 40.9072 -73.4983 48° Northeast 398 458 29,000  Level Boston Center
03:55PM 40.9794 -73.3914 48° Northeast 391 450 29,000  Level Boston Center
03:56PM 41.0583 -73.2761 48° Northeast 391 450 29,000  Level Boston Center
03:57PM 41.1319 -73.1683 48° Northeast 391 450 29,000  Level Boston Center
03:58PM 41.1961 -73.0486 55° Northeast 400 460 29,000  Level Boston Center
03:59PM 41.2561 -72.9217 58° Northeast 402 463 29,000  Level Boston Center
04:00PM 41.3242 -72.7756 58° Northeast 405 466 29,000  Level Boston Center
04:01PM 41.3883 -72.6531 55° Northeast 405 466 29,000  Level Boston Center
04:02PM 41.4578 -72.5333 52° Northeast 405 466 29,000  Level Boston Center
04:03PM 41.5272 -72.4122 53° Northeast 406 467 29,000  Level Boston Center
04:04PM 41.6008 -72.2819 53° Northeast 407 468 29,000  Level Boston Center
04:05PM 41.6706 -72.1600 53° Northeast 408 470 29,000  Level Boston Center
04:06PM 41.7378 -72.0392 53° Northeast 410 472 29,000  Level Boston Center
04:07PM 41.8064 -71.9192 52° Northeast 408 470 29,000  Level Boston Center
04:08PM 41.8875 -71.7722 53° Northeast 408 470 29,000  Level Boston Center
04:09PM 41.9556 -71.6503 53° Northeast 408 470 29,000 -420 Level Boston Center
04:10PM 42.0236 -71.5269 53° Northeast 408 470 28,200 -780 Descending Boston Center
04:11PM 42.0914 -71.4053 53° Northeast 408 470 27,400 -780 Descending Boston Center
04:12PM 42.1586 -71.2831 53° Northeast 407 468 26,700 -780 Descending Boston Center
04:13PM 42.2306 -71.1517 53° Northeast 403 464 25,800 -840 Descending Boston Center
04:14PM 42.2961 -71.0314 54° Northeast 401 461 25,000 -780 Descending Boston Center
04:15PM 42.3606 -70.9106 54° Northeast 400 460 24,300 -540 Descending Boston Center
04:16PM 42.4344 -70.7811 52° Northeast 394 453 24,000 -180 Descending Boston Center
04:17PM 42.5300 -70.7225 24° Northeast 376 433 24,000 -900 Level Boston Center
04:18PM 42.6342 -70.6636 23° Northeast 375 432 22,200 -1,860 Descending Boston Center
04:19PM 42.7256 -70.6119 23° Northeast 359 413 20,300 -1,920 Descending Boston Center
04:20PM 42.8189 -70.5517 25° Northeast 347 399 18,300 -1,860 Descending Boston Center
04:22PM 42.9022 -70.4981 25° Northeast 338 389 16,500 -1,800 Descending Boston Center
04:23PM 42.9911 -70.4428 24° Northeast 329 379 14,600 -1,800 Descending Boston Center
04:24PM 43.0681 -70.3819 30° Northeast 324 373 12,900 -1,680 Descending Boston Center
04:25PM 43.1425 -70.3169 32° Northeast 318 366 11,200 -1,020 Descending Boston Center
04:26PM 43.2194 -70.2536 31° Northeast 302 348 10,800 -1,380 Descending Boston Center
04:27PM 43.2978 -70.2236 16° North 293 337 8,400 -2,220 Descending Boston Center
04:28PM 43.3753 -70.1900 17° North 293 337 6,300 -2,220 Descending Boston Center
04:29PM 43.4506 -70.1572 18° North 267 307 3,900 -1,620 Descending Boston Center
04:30PM 43.5192 -70.1286 17° North 261 300 3,000 -660 Descending Boston Center
04:31PM 43.5842 -70.1450 350° North 215 247 2,600 -180 Descending Boston Center
04:32PM 43.6400 -70.1622 347° North 211 243 2,700 -420 Climbing Boston Center
04:33PM 43.6894 -70.1867 340° North 178 205 1,800 -660 Descending Boston Center
04:34PM 43.6608 -70.2294 227° Southwest 174 200 1,400 -720 Descending Boston Center
04:35PM 43.6425 -70.2761 242° Southwest 150 173 400 -1,020 Descending Boston Center